createdAt,value
2023-12-07T00:01:16.008Z,95624.92
2023-12-07T00:03:47.014Z,95621.94
2023-12-07T00:06:15.003Z,95622.02
2023-12-07T00:08:43.199Z,95619.73
2023-12-07T00:11:11.528Z,95621.73
2023-12-07T00:13:39.503Z,95620.58
2023-12-07T00:16:07.940Z,95622.32
2023-12-07T00:18:35.994Z,95619.17
2023-12-07T00:21:04.042Z,95620.30
2023-12-07T00:23:31.917Z,95623.88
2023-12-07T00:25:59.908Z,95624.88
2023-12-07T00:28:27.988Z,95624.61
2023-12-07T00:30:56.130Z,95627.04
2023-12-07T00:33:24.323Z,95627.19
2023-12-07T00:35:52.206Z,95628.75
2023-12-07T00:38:20.074Z,95630.94
2023-12-07T00:40:48.246Z,95639.64
2023-12-07T00:43:16.184Z,95640.08
2023-12-07T00:45:44.154Z,95639.33
2023-12-07T00:48:11.981Z,95640.05
2023-12-07T00:50:39.961Z,95642.92
2023-12-07T00:53:07.866Z,95644.79
2023-12-07T00:55:36.053Z,95642.56
2023-12-07T00:58:04.142Z,95640.63
2023-12-07T01:00:32.228Z,95640.75
2023-12-07T01:03:00.691Z,95639.08
2023-12-07T01:05:29.118Z,95633.40
2023-12-07T01:07:57.234Z,95633.96
2023-12-07T01:10:25.223Z,95634.04
2023-12-07T01:12:53.223Z,95630.50
2023-12-07T01:15:21.190Z,95631.66
2023-12-07T01:17:49.201Z,95627.45
2023-12-07T01:20:19.642Z,95628.97
2023-12-07T01:22:48.036Z,95626.23
2023-12-07T01:25:23.287Z,95628.32
2023-12-07T01:27:51.719Z,95626.70
2023-12-07T01:30:19.816Z,95624.44
2023-12-07T01:32:47.889Z,95624.12
2023-12-07T01:35:15.994Z,95625.70
2023-12-07T01:37:44.336Z,95625.21
2023-12-07T01:40:14.702Z,95625.98
2023-12-07T01:42:50.640Z,95627.04
2023-12-07T01:45:18.599Z,95623.34
2023-12-07T01:47:47.316Z,95624.17
2023-12-07T01:50:18.515Z,95624.26
2023-12-07T01:52:49.779Z,95621.30
2023-12-07T01:55:18.424Z,95615.32
2023-12-07T01:57:46.746Z,95618.01
2023-12-07T02:00:15.461Z,95618.05
2023-12-07T02:02:45.270Z,95616.59
2023-12-07T02:05:13.984Z,95619.10
2023-12-07T02:07:42.586Z,95616.84
2023-12-07T02:10:11.819Z,95616.27
2023-12-07T02:12:40.241Z,95615.89
2023-12-07T02:15:09.305Z,95616.52
2023-12-07T02:17:47.795Z,95614.66
2023-12-07T02:20:25.920Z,95618.39
2023-12-07T02:22:55.468Z,95619.09
2023-12-07T02:25:43.776Z,95618.61
2023-12-07T02:28:30.766Z,95623.63
2023-12-07T02:30:58.773Z,95625.83
2023-12-07T02:33:27.269Z,95625.79
2023-12-07T02:35:56.147Z,95625.40
2023-12-07T02:38:27.572Z,95629.85
2023-12-07T02:40:56.408Z,95632.10
2023-12-07T02:43:24.447Z,95636.56
2023-12-07T02:45:52.532Z,95636.93
2023-12-07T02:48:21.771Z,95636.08
2023-12-07T02:50:49.825Z,95637.14
2023-12-07T02:53:18.586Z,95639.40
2023-12-07T02:55:46.629Z,95638.56
2023-12-07T02:58:15.202Z,95640.42
2023-12-07T03:00:43.077Z,95641.95
2023-12-07T03:03:11.012Z,95637.21
2023-12-07T03:05:39.022Z,95635.06
2023-12-07T03:08:07.082Z,95636.48
2023-12-07T03:10:35.191Z,95639.34
2023-12-07T03:13:03.713Z,95641.14
2023-12-07T03:15:31.681Z,95634.34
2023-12-07T03:17:59.647Z,95635.69
2023-12-07T03:20:27.851Z,95642.56
2023-12-07T03:22:55.902Z,95645.05
2023-12-07T03:25:23.967Z,95643.29
2023-12-07T03:27:51.977Z,95646.48
2023-12-07T03:30:19.850Z,95645.38
2023-12-07T03:32:47.742Z,95642.85
2023-12-07T03:35:15.724Z,95641.04
2023-12-07T03:37:43.586Z,95642.23
2023-12-07T03:40:11.756Z,95645.52
2023-12-07T03:42:51.049Z,95650.16
2023-12-07T03:45:25.049Z,95651.20
2023-12-07T03:47:53.276Z,95654.84
2023-12-07T03:50:41.022Z,95656.73
2023-12-07T03:53:08.824Z,95661.98
2023-12-07T03:55:38.026Z,95663.12
2023-12-07T03:58:06.354Z,95666.71
2023-12-07T04:00:34.993Z,95670.86
2023-12-07T04:03:03.241Z,95671.16
2023-12-07T04:05:31.275Z,95673.48
2023-12-07T04:08:02.393Z,95667.80
2023-12-07T04:10:30.449Z,95667.78
2023-12-07T04:12:58.687Z,95670.02
2023-12-07T04:15:26.727Z,95667.25
2023-12-07T04:17:56.651Z,95668.40
2023-12-07T04:20:24.629Z,95669.17
2023-12-07T04:22:53.500Z,95674.20
2023-12-07T04:25:21.682Z,95673.29
2023-12-07T04:27:49.954Z,95669.70
2023-12-07T04:30:18.094Z,95671.55
2023-12-07T04:32:46.048Z,95669.92
2023-12-07T04:35:14.059Z,95667.24
2023-12-07T04:37:42.000Z,95669.73
2023-12-07T04:40:12.810Z,95668.41
2023-12-07T04:42:40.781Z,95668.69
2023-12-07T04:45:08.881Z,95672.09
2023-12-07T04:47:36.908Z,95676.14
2023-12-07T04:50:05.405Z,95678.20
2023-12-07T04:52:37.040Z,95678.46
2023-12-07T04:55:07.548Z,95680.31
2023-12-07T04:57:36.018Z,95684.34
2023-12-07T05:00:14.669Z,95689.29
2023-12-07T05:02:42.681Z,95692.35
2023-12-07T05:05:10.592Z,95693.83
2023-12-07T05:07:40.020Z,95693.77
2023-12-07T05:10:08.338Z,95691.94
2023-12-07T05:12:36.788Z,95691.68
2023-12-07T05:15:07.601Z,95692.01
2023-12-07T05:17:36.062Z,95691.59
2023-12-07T05:20:06.353Z,95692.34
2023-12-07T05:22:35.049Z,95696.95
2023-12-07T05:25:04.045Z,95697.83
2023-12-07T05:27:32.204Z,95699.27
2023-12-07T05:30:00.164Z,95698.27
2023-12-07T05:32:29.072Z,95703.89
2023-12-07T05:34:57.141Z,95702.31
2023-12-07T05:37:25.159Z,95705.88
2023-12-07T05:39:53.091Z,95703.05
2023-12-07T05:42:27.756Z,95705.55
2023-12-07T05:44:55.795Z,95714.31
2023-12-07T05:47:24.692Z,95712.77
2023-12-07T05:49:53.300Z,95718.80
2023-12-07T05:52:21.392Z,95719.90
2023-12-07T05:54:50.415Z,95721.25
2023-12-07T05:57:18.404Z,95718.93
2023-12-07T05:59:46.414Z,95722.96
2023-12-07T06:02:14.331Z,95724.30
2023-12-07T06:04:46.564Z,95724.45
2023-12-07T06:07:14.507Z,95729.23
2023-12-07T06:09:42.853Z,95733.90
2023-12-07T06:12:11.093Z,95735.85
2023-12-07T06:14:38.981Z,95738.15
2023-12-07T06:17:06.911Z,95739.20
2023-12-07T06:19:34.906Z,95741.30
2023-12-07T06:22:02.915Z,95745.00
2023-12-07T06:24:30.988Z,95746.77
2023-12-07T06:26:59.274Z,95745.12
2023-12-07T06:29:29.407Z,95743.27
2023-12-07T06:31:58.394Z,95746.27
2023-12-07T06:34:27.389Z,95747.70
2023-12-07T06:36:58.347Z,95746.08
2023-12-07T06:39:26.888Z,95749.82
2023-12-07T06:41:56.387Z,95748.31
2023-12-07T06:44:27.059Z,95748.94
2023-12-07T06:46:54.966Z,95752.79
2023-12-07T06:49:26.911Z,95756.02
2023-12-07T06:51:59.781Z,95764.19
2023-12-07T06:54:27.975Z,95762.91
2023-12-07T06:56:56.398Z,95763.23
2023-12-07T06:59:32.194Z,95761.50
2023-12-07T07:02:04.858Z,95768.47
2023-12-07T07:04:33.437Z,95769.30
2023-12-07T07:07:01.372Z,95768.52
2023-12-07T07:09:29.330Z,95769.23
2023-12-07T07:11:59.328Z,95764.30
2023-12-07T07:14:27.241Z,95767.88
2023-12-07T07:16:55.243Z,95772.86
2023-12-07T07:19:24.357Z,95774.65
2023-12-07T07:21:52.381Z,95773.77
2023-12-07T07:24:20.320Z,95777.92
2023-12-07T07:26:48.312Z,95780.33
2023-12-07T07:29:16.273Z,95780.96
2023-12-07T07:31:44.248Z,95781.50
2023-12-07T07:34:12.358Z,95782.66
2023-12-07T07:36:40.266Z,95790.67
2023-12-07T07:39:09.127Z,95793.06
2023-12-07T07:41:37.596Z,95794.29
2023-12-07T07:44:05.532Z,95796.86
2023-12-07T07:46:33.506Z,95798.86
2023-12-07T07:49:01.628Z,95796.39
2023-12-07T07:51:29.731Z,95796.15
2023-12-07T07:53:59.731Z,95799.77
2023-12-07T07:56:27.894Z,95803.89
2023-12-07T07:58:55.738Z,95807.80
2023-12-07T08:01:23.839Z,95811.02
2023-12-07T08:03:52.151Z,95811.02
2023-12-07T08:06:40.175Z,95808.97
2023-12-07T08:09:09.234Z,95810.16
2023-12-07T08:11:37.192Z,95810.45
2023-12-07T08:14:05.062Z,95810.39
2023-12-07T08:16:33.044Z,95810.49
2023-12-07T08:19:01.388Z,95811.98
2023-12-07T08:21:31.597Z,95810.58
2023-12-07T08:23:59.982Z,95808.70
2023-12-07T08:26:29.445Z,95808.52
2023-12-07T08:28:57.916Z,95809.20
2023-12-07T08:31:26.639Z,95812.15
2023-12-07T08:33:55.026Z,95818.56
2023-12-07T08:36:23.227Z,95818.41
2023-12-07T08:38:52.316Z,95815.27
2023-12-07T08:41:20.310Z,95816.38
2023-12-07T08:44:10.581Z,95815.83
2023-12-07T08:46:38.600Z,95817.83
2023-12-07T08:49:07.795Z,95816.30
2023-12-07T08:51:36.740Z,95815.95
2023-12-07T08:54:06.665Z,95817.02
2023-12-07T08:56:34.680Z,95816.48
2023-12-07T08:59:03.098Z,95821.48
2023-12-07T09:01:34.292Z,95818.79
2023-12-07T09:04:02.553Z,95821.11
2023-12-07T09:06:30.839Z,95817.80
2023-12-07T09:08:58.875Z,95816.05
2023-12-07T09:11:26.870Z,95815.94
2023-12-07T09:13:54.772Z,95817.05
2023-12-07T09:16:22.827Z,95815.61
2023-12-07T09:18:51.625Z,95817.89
2023-12-07T09:21:19.611Z,95817.15
2023-12-07T09:23:47.375Z,95816.70
2023-12-07T09:26:15.552Z,95817.34
2023-12-07T09:28:43.781Z,95817.25
2023-12-07T09:31:19.520Z,95815.73
2023-12-07T09:33:48.877Z,95816.17
2023-12-07T09:36:20.069Z,95812.20
2023-12-07T09:38:48.250Z,95810.35
2023-12-07T09:41:16.193Z,95808.20
2023-12-07T09:43:44.228Z,95811.89
2023-12-07T09:46:12.215Z,95813.70
2023-12-07T09:48:43.838Z,95813.45
2023-12-07T09:51:12.833Z,95813.78
2023-12-07T09:53:43.401Z,95810.25
2023-12-07T09:56:11.929Z,95813.77
2023-12-07T09:58:41.834Z,95814.19
2023-12-07T10:01:10.458Z,95810.39
2023-12-07T10:03:38.617Z,95806.95
2023-12-07T10:06:07.220Z,95804.33
2023-12-07T10:08:38.612Z,95804.63
2023-12-07T10:11:07.920Z,95806.73
2023-12-07T10:13:36.806Z,95806.30
2023-12-07T10:16:10.036Z,95806.48
2023-12-07T10:18:40.595Z,95803.27
2023-12-07T10:21:10.982Z,95805.54
2023-12-07T10:23:39.612Z,95805.73
2023-12-07T10:26:08.847Z,95808.68
2023-12-07T10:28:39.863Z,95812.64
2023-12-07T10:31:11.306Z,95815.98
2023-12-07T10:33:39.848Z,95811.90
2023-12-07T10:36:08.366Z,95811.25
2023-12-07T10:38:36.396Z,95809.71
2023-12-07T10:41:08.508Z,95809.41
2023-12-07T10:43:40.855Z,95809.70
2023-12-07T10:46:10.045Z,95809.34
2023-12-07T10:48:39.554Z,95806.50
2023-12-07T10:51:10.123Z,95805.58
2023-12-07T10:53:45.652Z,95798.81
2023-12-07T10:56:21.448Z,95794.27
2023-12-07T10:58:53.025Z,95796.14
2023-12-07T11:01:21.537Z,95794.95
2023-12-07T11:03:50.892Z,95793.14
2023-12-07T11:06:19.719Z,95792.71
2023-12-07T11:08:51.938Z,95791.58
2023-12-07T11:11:26.498Z,95791.86
2023-12-07T11:14:02.150Z,95791.70
2023-12-07T11:16:33.800Z,95789.34
2023-12-07T11:19:01.950Z,95790.59
2023-12-07T11:21:48.474Z,95798.88
2023-12-07T11:24:18.215Z,95797.86
2023-12-07T11:26:46.535Z,95797.19
2023-12-07T11:29:18.737Z,95800.05
2023-12-07T11:31:47.181Z,95801.47
2023-12-07T11:34:35.596Z,95803.14
2023-12-07T11:37:08.585Z,95806.59
2023-12-07T11:39:42.708Z,95806.36
2023-12-07T11:42:16.104Z,95801.65
2023-12-07T11:44:46.073Z,95801.09
2023-12-07T11:47:18.545Z,95797.11
2023-12-07T11:49:46.990Z,95798.61
2023-12-07T11:52:15.748Z,95797.33
2023-12-07T11:54:51.034Z,95798.63
2023-12-07T11:57:19.603Z,95801.18
2023-12-07T11:59:50.270Z,95802.45
2023-12-07T12:02:19.751Z,95801.16
2023-12-07T12:04:47.880Z,95802.95
2023-12-07T12:07:16.057Z,95798.38
2023-12-07T12:09:44.949Z,95798.08
2023-12-07T12:12:15.026Z,95799.73
2023-12-07T12:14:43.962Z,95801.77
2023-12-07T12:17:15.923Z,95802.05
2023-12-07T12:19:44.070Z,95796.67
2023-12-07T12:22:12.219Z,95797.15
2023-12-07T12:24:41.682Z,95794.44
2023-12-07T12:27:10.872Z,95795.68
2023-12-07T12:29:38.893Z,95799.80
2023-12-07T12:32:07.480Z,95803.42
2023-12-07T12:34:36.333Z,95801.73
2023-12-07T12:37:08.479Z,95806.36
2023-12-07T12:39:36.732Z,95801.74
2023-12-07T12:42:06.277Z,95801.23
2023-12-07T12:44:37.468Z,95807.10
2023-12-07T12:47:10.582Z,95802.48
2023-12-07T12:49:41.539Z,95804.73
2023-12-07T12:52:17.583Z,95809.98
2023-12-07T12:54:45.745Z,95812.37
2023-12-07T12:57:15.622Z,95810.46
2023-12-07T12:59:44.081Z,95814.92
2023-12-07T13:02:12.085Z,95816.25
2023-12-07T13:04:41.935Z,95821.05
2023-12-07T13:07:10.964Z,95823.83
2023-12-07T13:09:39.509Z,95823.38
2023-12-07T13:12:08.071Z,95820.41
2023-12-07T13:14:37.341Z,95822.40
2023-12-07T13:17:06.244Z,95824.30
2023-12-07T13:19:34.815Z,95826.64
2023-12-07T13:22:04.540Z,95828.56
2023-12-07T13:24:32.747Z,95830.12
2023-12-07T13:27:03.226Z,95826.96
2023-12-07T13:29:36.102Z,95828.85
2023-12-07T13:32:05.507Z,95829.61
2023-12-07T13:34:33.879Z,95831.58
2023-12-07T13:37:02.229Z,95830.02
2023-12-07T13:39:32.470Z,95829.23
2023-12-07T13:42:04.047Z,95833.02
2023-12-07T13:44:34.248Z,95832.07
2023-12-07T13:47:02.965Z,95834.42
2023-12-07T13:49:33.654Z,95836.43
2023-12-07T13:52:06.717Z,95836.02
2023-12-07T13:57:09.372Z,95839.16
2023-12-07T13:59:38.963Z,95842.41
2023-12-07T14:02:07.026Z,95839.41
2023-12-07T14:04:35.355Z,95841.32
2023-12-07T14:07:10.399Z,95842.46
2023-12-07T14:09:47.071Z,95845.73
2023-12-07T14:12:22.095Z,95845.81
2023-12-07T14:14:50.093Z,95845.72
2023-12-07T14:17:20.367Z,95846.32
2023-12-07T14:19:55.806Z,95854.61
2023-12-07T14:22:24.663Z,95852.17
2023-12-07T14:24:53.480Z,95853.70
2023-12-07T14:27:21.333Z,95858.60
2023-12-07T14:29:49.344Z,95857.42
2023-12-07T14:32:17.361Z,95858.50
2023-12-07T14:34:45.605Z,95859.20
2023-12-07T14:37:13.757Z,95860.95
2023-12-07T14:39:45.179Z,95863.14
2023-12-07T14:42:13.134Z,95863.36
2023-12-07T14:44:41.211Z,95867.17
2023-12-07T14:47:09.407Z,95867.75
2023-12-07T14:49:37.577Z,95867.96
2023-12-07T14:52:05.614Z,95867.11
2023-12-07T14:54:33.823Z,95865.11
2023-12-07T14:57:04.105Z,95866.81
2023-12-07T14:59:32.306Z,95868.17
2023-12-07T15:02:04.340Z,95868.77
2023-12-07T15:04:52.731Z,95869.86
2023-12-07T15:07:20.530Z,95870.59
2023-12-07T15:09:50.470Z,95875.88
2023-12-07T15:12:20.100Z,95882.53
2023-12-07T15:14:48.274Z,95880.41
2023-12-07T15:17:17.106Z,95879.97
2023-12-07T15:19:45.392Z,95884.31
2023-12-07T15:22:13.309Z,95884.35
2023-12-07T15:24:41.583Z,95885.18
2023-12-07T15:27:09.729Z,95884.48
2023-12-07T15:29:41.766Z,95883.06
2023-12-07T15:32:10.998Z,95883.16
2023-12-07T15:34:42.149Z,95879.74
2023-12-07T15:37:12.938Z,95882.83
2023-12-07T15:39:42.173Z,95887.77
2023-12-07T15:42:11.467Z,95889.89
2023-12-07T15:44:40.404Z,95890.98
2023-12-07T15:47:08.829Z,95892.92
2023-12-07T15:49:37.666Z,95893.88
2023-12-07T15:52:06.044Z,95895.30
2023-12-07T15:54:39.677Z,95898.30
2023-12-07T15:57:13.119Z,95901.64
2023-12-07T15:59:42.005Z,95900.64
2023-12-07T16:02:10.908Z,95895.91
2023-12-07T16:04:39.744Z,95900.17
2023-12-07T16:07:09.961Z,95901.27
2023-12-07T16:09:40.064Z,95903.55
2023-12-07T16:12:09.773Z,95907.05
2023-12-07T16:14:38.942Z,95908.33
2023-12-07T16:17:09.068Z,95904.83
2023-12-07T16:19:37.476Z,95902.17
2023-12-07T16:22:06.032Z,95903.38
2023-12-07T16:24:34.686Z,95906.99
2023-12-07T16:27:05.323Z,95907.71
2023-12-07T16:29:35.733Z,95913.00
2023-12-07T16:32:04.448Z,95913.73
2023-12-07T16:34:32.534Z,95915.70
2023-12-07T16:37:00.831Z,95919.40
2023-12-07T16:39:29.277Z,95924.13
2023-12-07T16:42:01.897Z,95925.29
2023-12-07T16:44:32.022Z,95926.55
2023-12-07T16:47:00.642Z,95932.78
2023-12-07T16:49:29.219Z,95932.93
2023-12-07T16:51:58.285Z,95938.50
2023-12-07T16:54:26.717Z,95940.67
2023-12-07T16:56:55.003Z,95943.43
2023-12-07T16:59:23.240Z,95945.42
2023-12-07T17:05:14.252Z,95953.30
2023-12-07T17:07:45.349Z,95958.30
2023-12-07T17:10:13.950Z,95961.64
2023-12-07T17:12:41.929Z,95963.70
2023-12-07T17:15:10.356Z,95961.26
2023-12-07T17:17:42.767Z,95962.08
2023-12-07T17:20:11.516Z,95961.95
2023-12-07T17:22:39.669Z,95961.47
2023-12-07T17:25:08.110Z,95960.98
2023-12-07T17:27:35.972Z,95963.20
2023-12-07T17:30:04.787Z,95963.34
2023-12-07T17:32:35.339Z,95961.25
2023-12-07T17:35:03.533Z,95962.64
2023-12-07T17:37:31.497Z,95960.67
2023-12-07T17:39:59.413Z,95959.91
2023-12-07T17:42:27.582Z,95958.77
2023-12-07T17:44:56.211Z,95959.73
2023-12-07T17:47:27.707Z,95959.09
2023-12-07T17:49:58.791Z,95957.27
2023-12-07T17:52:27.368Z,95955.19
2023-12-07T17:54:55.344Z,95955.38
2023-12-07T17:57:23.564Z,95958.31
2023-12-07T17:59:51.866Z,95963.30
2023-12-07T18:02:22.358Z,95965.30
2023-12-07T18:04:50.285Z,95965.70
2023-12-07T18:07:18.169Z,95969.46
2023-12-07T18:09:46.185Z,95968.86
2023-12-07T18:12:14.542Z,95969.17
2023-12-07T18:14:44.175Z,95970.02
2023-12-07T18:17:12.460Z,95973.14
2023-12-07T18:19:40.494Z,95973.99
2023-12-07T18:22:08.690Z,95975.56
2023-12-07T18:24:36.619Z,95976.70
2023-12-07T18:27:04.843Z,95978.02
2023-12-07T18:29:38.867Z,95972.22
2023-12-07T18:32:15.228Z,95970.88
2023-12-07T18:34:43.910Z,95973.19
2023-12-07T18:37:13.547Z,95975.50
2023-12-07T18:39:41.566Z,95975.34
2023-12-07T18:42:11.395Z,95978.04
2023-12-07T18:44:42.692Z,95978.69
2023-12-07T18:47:11.403Z,95979.88
2023-12-07T18:49:42.526Z,95982.48
2023-12-07T18:52:10.921Z,95985.14
2023-12-07T18:54:42.224Z,95989.94
2023-12-07T18:57:10.197Z,95992.61
2023-12-07T18:59:38.699Z,95992.64
2023-12-07T19:02:09.434Z,95994.42
2023-12-07T19:04:37.432Z,95995.02
2023-12-07T19:07:05.829Z,95995.97
2023-12-07T19:09:36.688Z,95999.73
2023-12-07T19:12:05.885Z,95997.27
2023-12-07T19:14:38.585Z,95998.63
2023-12-07T19:17:06.853Z,95996.70
2023-12-07T19:19:35.139Z,95996.90
2023-12-07T19:22:04.226Z,95996.77
2023-12-07T19:24:32.366Z,95996.17
2023-12-07T19:27:02.499Z,95995.60
2023-12-07T19:29:34.799Z,95996.88
2023-12-07T19:32:02.745Z,95999.80
2023-12-07T19:34:31.710Z,96000.00
2023-12-07T19:37:02.154Z,96002.09
2023-12-07T19:39:30.438Z,96005.08
2023-12-07T19:41:58.387Z,96005.09
2023-12-07T19:44:26.715Z,96008.09
2023-12-07T19:46:54.558Z,96007.65
2023-12-07T19:49:22.557Z,96009.05
2023-12-07T19:51:51.047Z,96009.42
2023-12-07T19:54:24.845Z,96012.00
2023-12-07T19:56:56.016Z,96011.20
2023-12-07T19:59:23.986Z,96012.14
2023-12-07T20:01:52.045Z,96013.95
2023-12-07T20:04:22.274Z,96012.09
2023-12-07T20:06:50.606Z,96016.22
2023-12-07T20:09:18.806Z,96020.62
2023-12-07T20:11:47.102Z,96019.79
2023-12-07T20:14:18.842Z,96017.54
2023-12-07T20:16:47.190Z,96018.00
2023-12-07T20:19:15.401Z,96018.63
2023-12-07T20:21:43.887Z,96021.39
2023-12-07T20:24:13.399Z,96026.69
2023-12-07T20:26:44.088Z,96029.04
2023-12-07T20:29:12.060Z,96027.44
2023-12-07T20:31:42.003Z,96023.77
2023-12-07T20:34:10.130Z,96022.92
2023-12-07T20:36:38.313Z,96021.80
2023-12-07T20:39:06.315Z,96023.50
2023-12-07T20:41:34.583Z,96027.15
2023-12-07T20:44:04.234Z,96021.64
2023-12-07T20:46:32.192Z,96016.17
2023-12-07T20:49:00.264Z,96014.41
2023-12-07T20:51:28.295Z,96012.65
2023-12-07T20:53:56.307Z,96019.06
2023-12-07T20:56:27.534Z,96022.10
2023-12-07T20:58:59.677Z,96017.73
2023-12-07T21:01:27.632Z,96014.56
2023-12-07T21:03:55.588Z,96017.15
2023-12-07T21:06:26.434Z,96020.55
2023-12-07T21:08:55.432Z,96022.13
2023-12-07T21:11:23.404Z,96017.11
2023-12-07T21:13:51.394Z,96018.59
2023-12-07T21:16:25.902Z,96020.40
2023-12-07T21:18:54.104Z,96021.50
2023-12-07T21:21:23.315Z,96021.27
2023-12-07T21:23:51.366Z,96021.19
2023-12-07T21:26:19.889Z,96023.94
2023-12-07T21:28:47.924Z,96022.16
2023-12-07T21:31:20.374Z,96021.92
2023-12-07T21:34:00.668Z,96017.00
2023-12-07T21:36:31.792Z,96020.39
2023-12-07T21:39:00.831Z,96020.91
2023-12-07T21:41:29.116Z,96021.80
2023-12-07T21:43:57.335Z,96020.48
2023-12-07T21:46:26.719Z,96022.91
2023-12-07T21:48:55.985Z,96017.65
2023-12-07T21:51:24.115Z,96023.13
2023-12-07T21:53:52.096Z,96018.52
2023-12-07T21:56:27.284Z,96018.16
2023-12-07T21:58:55.502Z,96016.44
2023-12-07T22:01:26.687Z,96017.27
2023-12-07T22:03:54.677Z,96015.75
2023-12-07T22:06:26.229Z,96017.79
2023-12-07T22:08:55.629Z,96019.36
2023-12-07T22:11:25.545Z,96019.92
2023-12-07T22:13:59.808Z,96024.59
2023-12-07T22:16:27.916Z,96026.52
2023-12-07T22:18:56.373Z,96031.11
2023-12-07T22:21:24.378Z,96034.10
2023-12-07T22:23:55.036Z,96027.96
2023-12-07T22:26:23.869Z,96028.62
2023-12-07T22:28:52.511Z,96028.95
2023-12-07T22:31:20.758Z,96024.63
2023-12-07T22:34:00.209Z,96024.05
2023-12-07T22:36:31.381Z,96023.97
2023-12-07T22:39:00.060Z,96020.34
2023-12-07T22:41:28.948Z,96019.60
2023-12-07T22:43:57.375Z,96021.74
2023-12-07T22:46:25.544Z,96022.05
2023-12-07T22:48:53.874Z,96024.98
2023-12-07T22:51:22.296Z,96028.15
2023-12-07T22:53:52.716Z,96025.27
2023-12-07T22:56:20.709Z,96025.44
2023-12-07T22:58:48.977Z,96026.77
2023-12-07T23:01:17.718Z,96024.73
2023-12-07T23:03:45.799Z,96024.77
2023-12-07T23:06:14.123Z,96024.11
2023-12-07T23:08:42.670Z,96025.08
2023-12-07T23:11:11.913Z,96026.29
2023-12-07T23:13:40.771Z,96026.16
2023-12-07T23:16:08.808Z,96030.13
2023-12-07T23:18:36.941Z,96030.06
2023-12-07T23:21:05.874Z,96030.39
2023-12-07T23:23:34.397Z,96025.73
2023-12-07T23:26:03.129Z,96025.29
2023-12-07T23:28:32.589Z,96020.46
2023-12-07T23:31:01.806Z,96019.64
2023-12-07T23:33:31.759Z,96019.27
2023-12-07T23:36:00.791Z,96016.33
2023-12-07T23:38:29.007Z,96014.55
2023-12-07T23:40:58.542Z,96014.94
2023-12-07T23:43:27.599Z,96017.27
2023-12-07T23:45:55.790Z,96018.27
2023-12-07T23:48:24.984Z,96019.29
2023-12-07T23:50:53.131Z,96020.47
2023-12-07T23:53:21.740Z,96022.22
2023-12-07T23:55:50.876Z,96022.40
2023-12-07T23:58:18.929Z,96018.48
